sensor_id;sensor_type;location;lat;lon;timestamp;temperature;humidity
73939;DHT22;62291;47.554;8.504;2023-03-01T00:02:20;0.40;99.90
73939;DHT22;62291;47.554;8.504;2023-03-01T00:04:46;0.40;99.90
73939;DHT22;62291;47.554;8.504;2023-03-01T00:07:12;0.50;99.90
73939;DHT22;62291;47.554;8.504;2023-03-01T00:09:38;0.50;99.90
73939;DHT22;62291;47.554;8.504;2023-03-01T00:12:06;0.50;99.90
73939;DHT22;62291;47.554;8.504;2023-03-01T00:14:31;0.50;99.90
73939;DHT22;62291;47.554;8.504;2023-03-01T00:16:57;0.50;99.90
73939;DHT22;62291;47.554;8.504;2023-03-01T00:19:23;0.60;99.90
73939;DHT22;62291;47.554;8.504;2023-03-01T00:21:49;0.60;99.90
73939;DHT22;62291;47.554;8.504;2023-03-01T00:24:15;0.60;99.90
73939;DHT22;62291;47.554;8.504;2023-03-01T00:26:42;0.60;99.90
73939;DHT22;62291;47.554;8.504;2023-03-01T00:29:08;0.60;99.90
73939;DHT22;62291;47.554;8.504;2023-03-01T00:31:34;0.70;99.90
73939;DHT22;62291;47.554;8.504;2023-03-01T00:34:02;0.70;99.90
73939;DHT22;62291;47.554;8.504;2023-03-01T00:36:31;0.60;99.90
73939;DHT22;62291;47.554;8.504;2023-03-01T00:38:57;0.70;99.90
73939;DHT22;62291;47.554;8.504;2023-03-01T00:41:23;0.70;99.90
73939;DHT22;62291;47.554;8.504;2023-03-01T00:43:49;0.80;99.90
73939;DHT22;62291;47.554;8.504;2023-03-01T00:46:20;0.70;99.90
73939;DHT22;62291;47.554;8.504;2023-03-01T00:48:46;0.70;99.90
73939;DHT22;62291;47.554;8.504;2023-03-01T00:51:17;0.70;99.90
73939;DHT22;62291;47.554;8.504;2023-03-01T00:53:43;0.80;99.90
73939;DHT22;62291;47.554;8.504;2023-03-01T00:56:11;0.90;99.90
73939;DHT22;62291;47.554;8.504;2023-03-01T00:58:37;0.80;99.90
73939;DHT22;62291;47.554;8.504;2023-03-01T01:01:15;0.80;99.90
73939;DHT22;62291;47.554;8.504;2023-03-01T01:03:47;0.80;99.90
73939;DHT22;62291;47.554;8.504;2023-03-01T01:06:25;0.80;99.90
73939;DHT22;62291;47.554;8.504;2023-03-01T01:08:52;0.90;99.90
73939;DHT22;62291;47.554;8.504;2023-03-01T01:11:18;1.00;99.90
73939;DHT22;62291;47.554;8.504;2023-03-01T01:13:46;1.00;99.90
73939;DHT22;62291;47.554;8.504;2023-03-01T01:16:12;1.00;99.90
73939;DHT22;62291;47.554;8.504;2023-03-01T01:18:38;1.00;99.90
73939;DHT22;62291;47.554;8.504;2023-03-01T01:21:06;1.00;99.90
73939;DHT22;62291;47.554;8.504;2023-03-01T01:23:32;1.00;99.90
73939;DHT22;62291;47.554;8.504;2023-03-01T01:26:13;1.10;99.90
73939;DHT22;62291;47.554;8.504;2023-03-01T01:28:39;1.10;99.90
73939;DHT22;62291;47.554;8.504;2023-03-01T01:31:05;1.10;99.90
73939;DHT22;62291;47.554;8.504;2023-03-01T01:33:31;1.10;99.90
73939;DHT22;62291;47.554;8.504;2023-03-01T01:35:57;1.10;99.90
73939;DHT22;62291;47.554;8.504;2023-03-01T01:38:23;1.10;99.90
73939;DHT22;62291;47.554;8.504;2023-03-01T01:40:50;1.10;99.90
73939;DHT22;62291;47.554;8.504;2023-03-01T01:43:23;1.10;99.90
73939;DHT22;62291;47.554;8.504;2023-03-01T01:45:50;1.10;99.90
73939;DHT22;62291;47.554;8.504;2023-03-01T01:48:22;1.20;99.90
73939;DHT22;62291;47.554;8.504;2023-03-01T01:50:58;1.20;99.90
73939;DHT22;62291;47.554;8.504;2023-03-01T01:53:26;1.20;99.90
73939;DHT22;62291;47.554;8.504;2023-03-01T01:55:56;1.20;99.90
73939;DHT22;62291;47.554;8.504;2023-03-01T01:58:24;1.20;99.90
73939;DHT22;62291;47.554;8.504;2023-03-01T02:00:53;1.20;99.90
73939;DHT22;62291;47.554;8.504;2023-03-01T02:03:23;1.20;99.90
73939;DHT22;62291;47.554;8.504;2023-03-01T02:08:23;1.20;99.90
73939;DHT22;62291;47.554;8.504;2023-03-01T02:10:51;1.20;99.90
73939;DHT22;62291;47.554;8.504;2023-03-01T02:13:17;1.20;99.90
73939;DHT22;62291;47.554;8.504;2023-03-01T02:15:43;1.30;99.90
73939;DHT22;62291;47.554;8.504;2023-03-01T02:18:16;1.30;99.90
73939;DHT22;62291;47.554;8.504;2023-03-01T02:23:14;1.30;99.90
73939;DHT22;62291;47.554;8.504;2023-03-01T02:26:04;1.40;99.90
73939;DHT22;62291;47.554;8.504;2023-03-01T02:28:38;1.30;99.90
73939;DHT22;62291;47.554;8.504;2023-03-01T02:31:07;1.40;99.90
73939;DHT22;62291;47.554;8.504;2023-03-01T02:33:53;1.40;99.90
73939;DHT22;62291;47.554;8.504;2023-03-01T02:36:26;1.40;99.90
73939;DHT22;62291;47.554;8.504;2023-03-01T02:38:57;1.40;99.90
73939;DHT22;62291;47.554;8.504;2023-03-01T02:41:24;1.40;99.90
73939;DHT22;62291;47.554;8.504;2023-03-01T02:43:51;1.40;99.90
73939;DHT22;62291;47.554;8.504;2023-03-01T02:46:21;1.40;99.90
73939;DHT22;62291;47.554;8.504;2023-03-01T02:49:00;1.50;99.90
73939;DHT22;62291;47.554;8.504;2023-03-01T02:54:33;1.40;99.90
73939;DHT22;62291;47.554;8.504;2023-03-01T02:57:02;1.40;99.90
73939;DHT22;62291;47.554;8.504;2023-03-01T02:59:33;1.30;99.90
73939;DHT22;62291;47.554;8.504;2023-03-01T03:02:05;1.40;99.90
73939;DHT22;62291;47.554;8.504;2023-03-01T03:04:30;1.40;99.90
73939;DHT22;62291;47.554;8.504;2023-03-01T03:06:56;1.40;99.90
73939;DHT22;62291;47.554;8.504;2023-03-01T03:09:22;1.40;99.90
73939;DHT22;62291;47.554;8.504;2023-03-01T03:11:47;1.40;99.90
73939;DHT22;62291;47.554;8.504;2023-03-01T03:14:16;1.40;99.90
73939;DHT22;62291;47.554;8.504;2023-03-01T03:16:47;1.40;99.90
73939;DHT22;62291;47.554;8.504;2023-03-01T03:19:13;1.40;99.90
73939;DHT22;62291;47.554;8.504;2023-03-01T03:21:39;1.40;99.90
73939;DHT22;62291;47.554;8.504;2023-03-01T03:24:05;1.50;99.90
73939;DHT22;62291;47.554;8.504;2023-03-01T03:26:31;1.40;99.90
73939;DHT22;62291;47.554;8.504;2023-03-01T03:28:57;1.40;99.90
73939;DHT22;62291;47.554;8.504;2023-03-01T03:31:23;1.40;99.90
73939;DHT22;62291;47.554;8.504;2023-03-01T03:33:48;1.40;99.90
73939;DHT22;62291;47.554;8.504;2023-03-01T03:36:19;1.50;99.90
73939;DHT22;62291;47.554;8.504;2023-03-01T03:38:45;1.40;99.90
73939;DHT22;62291;47.554;8.504;2023-03-01T03:41:12;1.40;99.90
73939;DHT22;62291;47.554;8.504;2023-03-01T03:43:39;1.50;99.90
73939;DHT22;62291;47.554;8.504;2023-03-01T03:46:06;1.40;99.90
73939;DHT22;62291;47.554;8.504;2023-03-01T03:48:38;1.50;99.90
73939;DHT22;62291;47.554;8.504;2023-03-01T03:51:05;1.50;99.90
73939;DHT22;62291;47.554;8.504;2023-03-01T03:53:31;1.50;99.90
73939;DHT22;62291;47.554;8.504;2023-03-01T03:55:57;1.50;99.90
73939;DHT22;62291;47.554;8.504;2023-03-01T03:58:24;1.60;99.90
73939;DHT22;62291;47.554;8.504;2023-03-01T04:00:53;1.50;99.90
73939;DHT22;62291;47.554;8.504;2023-03-01T04:03:19;1.50;99.90
73939;DHT22;62291;47.554;8.504;2023-03-01T04:05:46;1.50;99.90
73939;DHT22;62291;47.554;8.504;2023-03-01T04:08:12;1.60;99.90
73939;DHT22;62291;47.554;8.504;2023-03-01T04:10:41;1.50;99.90
73939;DHT22;62291;47.554;8.504;2023-03-01T04:13:09;1.50;99.90
73939;DHT22;62291;47.554;8.504;2023-03-01T04:15:36;1.50;99.90
73939;DHT22;62291;47.554;8.504;2023-03-01T04:18:02;1.50;99.90
73939;DHT22;62291;47.554;8.504;2023-03-01T04:20:30;1.50;99.90
73939;DHT22;62291;47.554;8.504;2023-03-01T04:23:05;1.50;99.90
73939;DHT22;62291;47.554;8.504;2023-03-01T04:25:53;1.50;99.90
73939;DHT22;62291;47.554;8.504;2023-03-01T04:28:21;1.60;99.90
73939;DHT22;62291;47.554;8.504;2023-03-01T04:30:47;1.60;99.90
73939;DHT22;62291;47.554;8.504;2023-03-01T04:33:13;1.50;99.90
73939;DHT22;62291;47.554;8.504;2023-03-01T04:35:38;1.60;99.90
73939;DHT22;62291;47.554;8.504;2023-03-01T04:38:06;1.60;99.90
73939;DHT22;62291;47.554;8.504;2023-03-01T04:40:32;1.60;99.90
73939;DHT22;62291;47.554;8.504;2023-03-01T04:42:58;1.60;99.90
73939;DHT22;62291;47.554;8.504;2023-03-01T04:45:24;1.60;99.90
73939;DHT22;62291;47.554;8.504;2023-03-01T04:47:49;1.60;99.90
73939;DHT22;62291;47.554;8.504;2023-03-01T04:50:18;1.50;99.90
73939;DHT22;62291;47.554;8.504;2023-03-01T04:52:46;1.50;99.90
73939;DHT22;62291;47.554;8.504;2023-03-01T04:55:12;1.50;99.90
73939;DHT22;62291;47.554;8.504;2023-03-01T04:57:38;1.50;99.90
73939;DHT22;62291;47.554;8.504;2023-03-01T05:00:06;1.50;99.90
73939;DHT22;62291;47.554;8.504;2023-03-01T05:02:50;1.50;99.90
73939;DHT22;62291;47.554;8.504;2023-03-01T05:05:20;1.50;99.90
73939;DHT22;62291;47.554;8.504;2023-03-01T05:07:46;1.50;99.90
73939;DHT22;62291;47.554;8.504;2023-03-01T05:10:12;1.50;99.90
73939;DHT22;62291;47.554;8.504;2023-03-01T05:12:38;1.50;99.90
73939;DHT22;62291;47.554;8.504;2023-03-01T05:15:04;1.50;99.90
73939;DHT22;62291;47.554;8.504;2023-03-01T05:17:33;1.50;99.90
73939;DHT22;62291;47.554;8.504;2023-03-01T05:19:59;1.50;99.90
73939;DHT22;62291;47.554;8.504;2023-03-01T05:22:26;1.50;99.90
73939;DHT22;62291;47.554;8.504;2023-03-01T05:24:52;1.50;99.90
73939;DHT22;62291;47.554;8.504;2023-03-01T05:27:19;1.50;99.90
73939;DHT22;62291;47.554;8.504;2023-03-01T05:29:47;1.50;99.90
73939;DHT22;62291;47.554;8.504;2023-03-01T05:32:13;1.50;99.90
73939;DHT22;62291;47.554;8.504;2023-03-01T05:34:41;1.40;99.90
73939;DHT22;62291;47.554;8.504;2023-03-01T05:37:07;1.40;99.90
73939;DHT22;62291;47.554;8.504;2023-03-01T05:39:34;1.40;99.90
73939;DHT22;62291;47.554;8.504;2023-03-01T05:42:00;1.40;99.90
73939;DHT22;62291;47.554;8.504;2023-03-01T05:44:28;1.40;99.90
73939;DHT22;62291;47.554;8.504;2023-03-01T05:46:54;1.40;99.90
73939;DHT22;62291;47.554;8.504;2023-03-01T05:49:21;1.50;99.90
73939;DHT22;62291;47.554;8.504;2023-03-01T05:51:50;1.50;99.90
73939;DHT22;62291;47.554;8.504;2023-03-01T05:54:17;1.50;99.90
73939;DHT22;62291;47.554;8.504;2023-03-01T05:56:44;1.50;99.90
73939;DHT22;62291;47.554;8.504;2023-03-01T05:59:10;1.50;99.90
73939;DHT22;62291;47.554;8.504;2023-03-01T06:01:36;1.50;99.90
73939;DHT22;62291;47.554;8.504;2023-03-01T06:04:03;1.50;99.90
73939;DHT22;62291;47.554;8.504;2023-03-01T06:06:29;1.50;99.90
73939;DHT22;62291;47.554;8.504;2023-03-01T06:08:55;1.40;99.90
73939;DHT22;62291;47.554;8.504;2023-03-01T06:11:21;1.50;99.90
73939;DHT22;62291;47.554;8.504;2023-03-01T06:13:47;1.50;99.90
73939;DHT22;62291;47.554;8.504;2023-03-01T06:16:13;1.40;99.90
73939;DHT22;62291;47.554;8.504;2023-03-01T06:18:40;1.40;99.90
73939;DHT22;62291;47.554;8.504;2023-03-01T06:21:07;1.40;99.90
73939;DHT22;62291;47.554;8.504;2023-03-01T06:23:33;1.50;99.90
73939;DHT22;62291;47.554;8.504;2023-03-01T06:25:59;1.50;99.90
73939;DHT22;62291;47.554;8.504;2023-03-01T06:28:25;1.50;99.90
73939;DHT22;62291;47.554;8.504;2023-03-01T06:30:51;1.50;99.90
73939;DHT22;62291;47.554;8.504;2023-03-01T06:33:17;1.60;99.90
73939;DHT22;62291;47.554;8.504;2023-03-01T06:35:46;1.60;99.90
73939;DHT22;62291;47.554;8.504;2023-03-01T06:38:12;1.60;99.90
73939;DHT22;62291;47.554;8.504;2023-03-01T06:40:40;1.60;99.90
73939;DHT22;62291;47.554;8.504;2023-03-01T06:43:06;1.60;99.90
73939;DHT22;62291;47.554;8.504;2023-03-01T06:45:33;1.70;99.90
73939;DHT22;62291;47.554;8.504;2023-03-01T06:48:03;1.70;99.90
73939;DHT22;62291;47.554;8.504;2023-03-01T06:50:29;1.70;99.90
73939;DHT22;62291;47.554;8.504;2023-03-01T06:52:56;1.70;99.90
73939;DHT22;62291;47.554;8.504;2023-03-01T06:55:22;1.70;99.90
73939;DHT22;62291;47.554;8.504;2023-03-01T06:57:47;1.60;99.90
73939;DHT22;62291;47.554;8.504;2023-03-01T07:00:14;1.60;99.90
73939;DHT22;62291;47.554;8.504;2023-03-01T07:02:39;1.60;99.90
73939;DHT22;62291;47.554;8.504;2023-03-01T07:05:05;1.50;99.90
73939;DHT22;62291;47.554;8.504;2023-03-01T07:07:31;1.50;99.90
73939;DHT22;62291;47.554;8.504;2023-03-01T07:09:57;1.50;99.90
73939;DHT22;62291;47.554;8.504;2023-03-01T07:12:23;1.50;99.90
73939;DHT22;62291;47.554;8.504;2023-03-01T07:14:48;1.50;99.90
73939;DHT22;62291;47.554;8.504;2023-03-01T07:17:14;1.50;99.90
73939;DHT22;62291;47.554;8.504;2023-03-01T07:19:40;1.60;99.90
73939;DHT22;62291;47.554;8.504;2023-03-01T07:22:05;1.60;99.90
73939;DHT22;62291;47.554;8.504;2023-03-01T07:24:33;1.60;99.90
73939;DHT22;62291;47.554;8.504;2023-03-01T07:26:59;1.60;99.90
73939;DHT22;62291;47.554;8.504;2023-03-01T07:29:24;1.60;99.90
73939;DHT22;62291;47.554;8.504;2023-03-01T07:31:50;1.60;99.90
73939;DHT22;62291;47.554;8.504;2023-03-01T07:34:16;1.60;99.90
73939;DHT22;62291;47.554;8.504;2023-03-01T07:36:41;1.60;99.90
73939;DHT22;62291;47.554;8.504;2023-03-01T07:39:10;1.60;99.90
73939;DHT22;62291;47.554;8.504;2023-03-01T07:41:35;1.50;99.90
73939;DHT22;62291;47.554;8.504;2023-03-01T07:44:01;1.50;99.90
73939;DHT22;62291;47.554;8.504;2023-03-01T07:46:27;1.50;99.90
73939;DHT22;62291;47.554;8.504;2023-03-01T07:48:53;1.50;99.90
73939;DHT22;62291;47.554;8.504;2023-03-01T07:51:18;1.50;99.90
73939;DHT22;62291;47.554;8.504;2023-03-01T07:53:46;1.50;99.90
73939;DHT22;62291;47.554;8.504;2023-03-01T07:56:14;1.50;99.90
73939;DHT22;62291;47.554;8.504;2023-03-01T07:58:42;1.50;99.90
73939;DHT22;62291;47.554;8.504;2023-03-01T08:01:15;1.50;99.90
73939;DHT22;62291;47.554;8.504;2023-03-01T08:03:41;1.50;99.90
73939;DHT22;62291;47.554;8.504;2023-03-01T08:06:10;1.50;99.90
73939;DHT22;62291;47.554;8.504;2023-03-01T08:08:36;1.50;99.90
73939;DHT22;62291;47.554;8.504;2023-03-01T08:11:03;1.60;99.90
73939;DHT22;62291;47.554;8.504;2023-03-01T08:13:30;1.60;99.90
73939;DHT22;62291;47.554;8.504;2023-03-01T08:16:07;1.60;99.90
73939;DHT22;62291;47.554;8.504;2023-03-01T08:18:34;1.70;99.90
73939;DHT22;62291;47.554;8.504;2023-03-01T08:21:07;1.60;99.90
73939;DHT22;62291;47.554;8.504;2023-03-01T08:23:34;1.70;99.90
73939;DHT22;62291;47.554;8.504;2023-03-01T08:26:11;1.70;99.90
73939;DHT22;62291;47.554;8.504;2023-03-01T08:28:38;1.60;99.90
73939;DHT22;62291;47.554;8.504;2023-03-01T08:31:14;1.60;99.90
73939;DHT22;62291;47.554;8.504;2023-03-01T08:33:39;1.60;99.90
73939;DHT22;62291;47.554;8.504;2023-03-01T08:36:06;1.70;99.90
73939;DHT22;62291;47.554;8.504;2023-03-01T08:38:32;1.80;99.90
73939;DHT22;62291;47.554;8.504;2023-03-01T08:41:03;1.70;99.90
73939;DHT22;62291;47.554;8.504;2023-03-01T08:43:29;1.70;99.90
73939;DHT22;62291;47.554;8.504;2023-03-01T08:45:55;1.70;99.90
73939;DHT22;62291;47.554;8.504;2023-03-01T08:48:20;1.70;99.90
73939;DHT22;62291;47.554;8.504;2023-03-01T08:50:46;1.70;99.90
73939;DHT22;62291;47.554;8.504;2023-03-01T08:53:11;1.70;99.90
73939;DHT22;62291;47.554;8.504;2023-03-01T08:55:37;1.70;99.90
73939;DHT22;62291;47.554;8.504;2023-03-01T08:58:02;1.80;99.90
73939;DHT22;62291;47.554;8.504;2023-03-01T09:00:28;1.80;99.90
73939;DHT22;62291;47.554;8.504;2023-03-01T09:02:54;1.70;99.90
73939;DHT22;62291;47.554;8.504;2023-03-01T09:05:19;1.70;99.90
73939;DHT22;62291;47.554;8.504;2023-03-01T09:07:45;1.70;99.90
73939;DHT22;62291;47.554;8.504;2023-03-01T09:10:10;1.70;99.90
73939;DHT22;62291;47.554;8.504;2023-03-01T09:12:36;1.80;99.90
73939;DHT22;62291;47.554;8.504;2023-03-01T09:15:02;1.80;99.90
73939;DHT22;62291;47.554;8.504;2023-03-01T09:17:28;1.80;99.90
73939;DHT22;62291;47.554;8.504;2023-03-01T09:19:53;1.80;99.90
73939;DHT22;62291;47.554;8.504;2023-03-01T09:22:19;1.80;99.90
73939;DHT22;62291;47.554;8.504;2023-03-01T09:24:44;1.80;99.90
73939;DHT22;62291;47.554;8.504;2023-03-01T09:27:10;1.90;99.90
73939;DHT22;62291;47.554;8.504;2023-03-01T09:29:38;1.90;99.90
73939;DHT22;62291;47.554;8.504;2023-03-01T09:32:03;1.90;99.90
73939;DHT22;62291;47.554;8.504;2023-03-01T09:34:29;1.90;99.90
73939;DHT22;62291;47.554;8.504;2023-03-01T09:36:56;1.90;99.90
73939;DHT22;62291;47.554;8.504;2023-03-01T09:39:22;1.90;99.90
73939;DHT22;62291;47.554;8.504;2023-03-01T09:42:02;2.00;99.90
73939;DHT22;62291;47.554;8.504;2023-03-01T09:47:17;1.90;99.90
73939;DHT22;62291;47.554;8.504;2023-03-01T09:49:45;1.90;99.90
73939;DHT22;62291;47.554;8.504;2023-03-01T09:52:43;2.00;99.90
73939;DHT22;62291;47.554;8.504;2023-03-01T09:55:13;2.00;99.90
73939;DHT22;62291;47.554;8.504;2023-03-01T09:57:58;1.90;99.90
73939;DHT22;62291;47.554;8.504;2023-03-01T10:00:40;2.00;99.90
73939;DHT22;62291;47.554;8.504;2023-03-01T10:03:17;1.90;99.90
73939;DHT22;62291;47.554;8.504;2023-03-01T10:06:19;1.90;99.90
73939;DHT22;62291;47.554;8.504;2023-03-01T10:09:21;1.90;99.90
73939;DHT22;62291;47.554;8.504;2023-03-01T10:11:52;2.00;99.90
73939;DHT22;62291;47.554;8.504;2023-03-01T10:17:34;2.10;99.90
73939;DHT22;62291;47.554;8.504;2023-03-01T10:20:28;2.10;99.90
73939;DHT22;62291;47.554;8.504;2023-03-01T10:22:55;2.10;99.90
73939;DHT22;62291;47.554;8.504;2023-03-01T10:28:24;2.10;99.90
73939;DHT22;62291;47.554;8.504;2023-03-01T10:30:50;2.20;99.90
73939;DHT22;62291;47.554;8.504;2023-03-01T10:35:44;2.10;99.90
73939;DHT22;62291;47.554;8.504;2023-03-01T10:38:12;2.20;99.90
73939;DHT22;62291;47.554;8.504;2023-03-01T10:41:00;2.20;99.90
73939;DHT22;62291;47.554;8.504;2023-03-01T10:43:46;2.30;99.90
73939;DHT22;62291;47.554;8.504;2023-03-01T10:46:33;2.30;99.90
73939;DHT22;62291;47.554;8.504;2023-03-01T10:49:24;2.30;99.90
73939;DHT22;62291;47.554;8.504;2023-03-01T10:51:51;2.40;99.90
73939;DHT22;62291;47.554;8.504;2023-03-01T10:54:28;2.40;99.90
73939;DHT22;62291;47.554;8.504;2023-03-01T10:56:59;2.50;99.90
73939;DHT22;62291;47.554;8.504;2023-03-01T10:59:38;2.40;99.90
73939;DHT22;62291;47.554;8.504;2023-03-01T11:02:22;2.30;99.90
73939;DHT22;62291;47.554;8.504;2023-03-01T11:07:56;2.30;99.90
73939;DHT22;62291;47.554;8.504;2023-03-01T11:12:53;2.20;99.90
73939;DHT22;62291;47.554;8.504;2023-03-01T11:15:27;2.30;99.90
73939;DHT22;62291;47.554;8.504;2023-03-01T11:17:54;2.30;99.90
73939;DHT22;62291;47.554;8.504;2023-03-01T11:20:32;2.30;99.90
73939;DHT22;62291;47.554;8.504;2023-03-01T11:23:02;2.20;99.90
73939;DHT22;62291;47.554;8.504;2023-03-01T11:25:40;2.20;99.90
73939;DHT22;62291;47.554;8.504;2023-03-01T11:28:10;2.20;99.90
73939;DHT22;62291;47.554;8.504;2023-03-01T11:30:51;2.20;99.90
73939;DHT22;62291;47.554;8.504;2023-03-01T11:44:36;2.50;99.90
73939;DHT22;62291;47.554;8.504;2023-03-01T11:47:30;2.50;99.90
73939;DHT22;62291;47.554;8.504;2023-03-01T12:06:50;2.40;99.90
73939;DHT22;62291;47.554;8.504;2023-03-01T12:09:30;2.40;99.90
73939;DHT22;62291;47.554;8.504;2023-03-01T12:20:28;2.50;99.90
73939;DHT22;62291;47.554;8.504;2023-03-01T12:25:57;2.40;99.90
73939;DHT22;62291;47.554;8.504;2023-03-01T12:31:21;2.50;99.90
73939;DHT22;62291;47.554;8.504;2023-03-01T12:37:01;2.40;99.90
73939;DHT22;62291;47.554;8.504;2023-03-01T12:45:26;2.40;99.90
73939;DHT22;62291;47.554;8.504;2023-03-01T12:50:25;2.40;99.90
73939;DHT22;62291;47.554;8.504;2023-03-01T12:52:56;2.50;99.90
73939;DHT22;62291;47.554;8.504;2023-03-01T12:55:33;2.60;99.90
73939;DHT22;62291;47.554;8.504;2023-03-01T13:00:49;2.50;99.90
73939;DHT22;62291;47.554;8.504;2023-03-01T13:03:28;2.60;99.90
73939;DHT22;62291;47.554;8.504;2023-03-01T13:11:06;2.50;99.90
73939;DHT22;62291;47.554;8.504;2023-03-01T13:13:32;2.50;99.90
73939;DHT22;62291;47.554;8.504;2023-03-01T13:19:18;2.60;99.90
73939;DHT22;62291;47.554;8.504;2023-03-01T13:21:45;2.60;99.90
73939;DHT22;62291;47.554;8.504;2023-03-01T13:24:33;2.60;99.90
73939;DHT22;62291;47.554;8.504;2023-03-01T13:29:53;2.70;99.90
73939;DHT22;62291;47.554;8.504;2023-03-01T13:32:30;2.80;99.90
73939;DHT22;62291;47.554;8.504;2023-03-01T13:35:01;2.70;99.90
73939;DHT22;62291;47.554;8.504;2023-03-01T13:37:31;2.80;99.90
73939;DHT22;62291;47.554;8.504;2023-03-01T13:40:00;2.70;99.90
73939;DHT22;62291;47.554;8.504;2023-03-01T13:42:37;2.70;99.90
73939;DHT22;62291;47.554;8.504;2023-03-01T13:45:24;2.70;99.90
73939;DHT22;62291;47.554;8.504;2023-03-01T13:48:11;2.70;99.90
73939;DHT22;62291;47.554;8.504;2023-03-01T13:50:53;2.60;99.90
73939;DHT22;62291;47.554;8.504;2023-03-01T13:53:23;2.60;99.90
73939;DHT22;62291;47.554;8.504;2023-03-01T13:56:00;2.60;99.90
73939;DHT22;62291;47.554;8.504;2023-03-01T13:58:43;2.70;99.90
73939;DHT22;62291;47.554;8.504;2023-03-01T14:01:33;2.60;99.90
73939;DHT22;62291;47.554;8.504;2023-03-01T14:04:00;2.70;99.90
73939;DHT22;62291;47.554;8.504;2023-03-01T14:06:32;2.70;99.90
73939;DHT22;62291;47.554;8.504;2023-03-01T14:09:20;2.70;99.90
73939;DHT22;62291;47.554;8.504;2023-03-01T14:14:36;2.80;99.90
73939;DHT22;62291;47.554;8.504;2023-03-01T14:19:54;2.90;99.90
73939;DHT22;62291;47.554;8.504;2023-03-01T14:22:29;2.90;99.90
73939;DHT22;62291;47.554;8.504;2023-03-01T14:25:02;2.90;99.90
73939;DHT22;62291;47.554;8.504;2023-03-01T14:27:35;2.80;99.90
73939;DHT22;62291;47.554;8.504;2023-03-01T14:30:15;2.80;99.90
73939;DHT22;62291;47.554;8.504;2023-03-01T14:32:42;2.80;99.90
73939;DHT22;62291;47.554;8.504;2023-03-01T14:35:23;2.70;99.90
73939;DHT22;62291;47.554;8.504;2023-03-01T14:37:49;2.70;99.90
73939;DHT22;62291;47.554;8.504;2023-03-01T14:42:50;2.70;99.90
73939;DHT22;62291;47.554;8.504;2023-03-01T14:45:16;2.70;99.90
73939;DHT22;62291;47.554;8.504;2023-03-01T14:47:44;2.80;99.90
73939;DHT22;62291;47.554;8.504;2023-03-01T14:52:45;2.80;99.90
73939;DHT22;62291;47.554;8.504;2023-03-01T14:55:19;2.90;99.90
73939;DHT22;62291;47.554;8.504;2023-03-01T14:57:48;2.90;99.90
73939;DHT22;62291;47.554;8.504;2023-03-01T15:00:28;2.90;99.90
73939;DHT22;62291;47.554;8.504;2023-03-01T15:02:58;2.80;99.90
73939;DHT22;62291;47.554;8.504;2023-03-01T15:05:31;2.80;99.90
73939;DHT22;62291;47.554;8.504;2023-03-01T15:08:02;2.90;99.90
73939;DHT22;62291;47.554;8.504;2023-03-01T15:10:31;3.00;99.90
73939;DHT22;62291;47.554;8.504;2023-03-01T15:13:11;3.00;99.90
73939;DHT22;62291;47.554;8.504;2023-03-01T15:15:44;3.00;99.90
73939;DHT22;62291;47.554;8.504;2023-03-01T15:18:25;3.00;99.90
73939;DHT22;62291;47.554;8.504;2023-03-01T15:20:52;3.10;99.90
73939;DHT22;62291;47.554;8.504;2023-03-01T15:23:27;3.10;99.90
73939;DHT22;62291;47.554;8.504;2023-03-01T15:25:54;3.10;99.90
73939;DHT22;62291;47.554;8.504;2023-03-01T15:28:28;3.00;99.90
73939;DHT22;62291;47.554;8.504;2023-03-01T15:31:02;2.90;99.90
73939;DHT22;62291;47.554;8.504;2023-03-01T15:35:57;2.90;99.90
73939;DHT22;62291;47.554;8.504;2023-03-01T15:40:51;2.90;99.90
73939;DHT22;62291;47.554;8.504;2023-03-01T15:43:40;2.90;99.90
73939;DHT22;62291;47.554;8.504;2023-03-01T15:46:21;2.80;99.90
73939;DHT22;62291;47.554;8.504;2023-03-01T15:48:52;2.90;99.90
73939;DHT22;62291;47.554;8.504;2023-03-01T15:51:23;3.00;99.90
73939;DHT22;62291;47.554;8.504;2023-03-01T15:53:53;2.90;99.90
73939;DHT22;62291;47.554;8.504;2023-03-01T15:56:19;3.00;99.90
73939;DHT22;62291;47.554;8.504;2023-03-01T15:58:44;2.90;99.90
73939;DHT22;62291;47.554;8.504;2023-03-01T16:01:15;2.90;99.90
73939;DHT22;62291;47.554;8.504;2023-03-01T16:03:44;2.80;99.90
73939;DHT22;62291;47.554;8.504;2023-03-01T16:06:11;2.90;99.90
73939;DHT22;62291;47.554;8.504;2023-03-01T16:08:38;2.90;99.90
73939;DHT22;62291;47.554;8.504;2023-03-01T16:11:15;2.90;99.90
73939;DHT22;62291;47.554;8.504;2023-03-01T16:13:41;2.90;99.90
73939;DHT22;62291;47.554;8.504;2023-03-01T16:16:12;2.90;99.90
73939;DHT22;62291;47.554;8.504;2023-03-01T16:18:44;2.90;99.90
73939;DHT22;62291;47.554;8.504;2023-03-01T16:21:16;2.90;99.90
73939;DHT22;62291;47.554;8.504;2023-03-01T16:23:44;3.00;99.90
73939;DHT22;62291;47.554;8.504;2023-03-01T16:26:10;3.10;99.90
73939;DHT22;62291;47.554;8.504;2023-03-01T16:28:36;3.10;99.90
73939;DHT22;62291;47.554;8.504;2023-03-01T16:31:01;3.10;99.90
73939;DHT22;62291;47.554;8.504;2023-03-01T16:33:27;3.00;99.90
73939;DHT22;62291;47.554;8.504;2023-03-01T16:35:53;3.00;99.90
73939;DHT22;62291;47.554;8.504;2023-03-01T16:38:19;3.10;99.90
73939;DHT22;62291;47.554;8.504;2023-03-01T16:40:49;3.10;99.90
73939;DHT22;62291;47.554;8.504;2023-03-01T16:43:15;3.10;99.90
73939;DHT22;62291;47.554;8.504;2023-03-01T16:45:41;3.10;99.90
73939;DHT22;62291;47.554;8.504;2023-03-01T16:48:10;3.10;99.90
73939;DHT22;62291;47.554;8.504;2023-03-01T16:50:35;3.20;99.90
73939;DHT22;62291;47.554;8.504;2023-03-01T16:53:02;3.10;99.90
73939;DHT22;62291;47.554;8.504;2023-03-01T16:55:27;3.10;99.90
73939;DHT22;62291;47.554;8.504;2023-03-01T16:57:53;3.10;99.90
73939;DHT22;62291;47.554;8.504;2023-03-01T17:00:19;3.00;99.90
73939;DHT22;62291;47.554;8.504;2023-03-01T17:02:46;3.00;99.90
73939;DHT22;62291;47.554;8.504;2023-03-01T17:05:12;2.90;99.90
73939;DHT22;62291;47.554;8.504;2023-03-01T17:07:38;2.90;99.90
73939;DHT22;62291;47.554;8.504;2023-03-01T17:10:05;2.90;99.90
73939;DHT22;62291;47.554;8.504;2023-03-01T17:12:33;2.90;99.90
73939;DHT22;62291;47.554;8.504;2023-03-01T17:14:59;2.90;99.90
73939;DHT22;62291;47.554;8.504;2023-03-01T17:17:25;2.90;99.90
73939;DHT22;62291;47.554;8.504;2023-03-01T17:19:51;2.90;99.90
73939;DHT22;62291;47.554;8.504;2023-03-01T17:22:16;2.80;99.90
73939;DHT22;62291;47.554;8.504;2023-03-01T17:24:43;2.80;99.90
73939;DHT22;62291;47.554;8.504;2023-03-01T17:27:10;2.80;99.90
73939;DHT22;62291;47.554;8.504;2023-03-01T17:29:37;2.80;99.90
73939;DHT22;62291;47.554;8.504;2023-03-01T17:32:03;2.90;99.90
73939;DHT22;62291;47.554;8.504;2023-03-01T17:34:31;2.90;99.90
73939;DHT22;62291;47.554;8.504;2023-03-01T17:36:57;2.90;99.90
73939;DHT22;62291;47.554;8.504;2023-03-01T17:39:23;2.90;99.90
73939;DHT22;62291;47.554;8.504;2023-03-01T17:41:55;2.90;99.90
73939;DHT22;62291;47.554;8.504;2023-03-01T17:44:21;3.00;99.90
73939;DHT22;62291;47.554;8.504;2023-03-01T17:46:47;3.00;99.90
73939;DHT22;62291;47.554;8.504;2023-03-01T17:49:12;2.90;99.90